Kirishima Maru No.17 — JD3391 — position and weather

sailwx.info

Track history (hours):
 
Tides and Currents Weather Stations Pressure Air Temp Water Temp Dewpoint Dewpoint Depression Visibility Wind Speed Wind Dir Waves Ship Positions

Kirishima Maru No.17

Last reported at 2017-Oct-13 06:36 UTC. Time now 2017-Oct-20 06:49 UTC.
Position N 34°37' E 135°01'.

Length 91 m; draft 4.8 m.

Type: Tanker. MMSI: 431003736.

Date/timePositionNaut miles runAvg speedWind from/ knotsBaromVisibWave heightAir tempDewpointWater temp
2017-Oct-13 06:36N 34°37' E 135°01'116.7
2017-Oct-13 06:31N 34°37' E 135°03'714.1
2017-Oct-13 06:01N 34°36' E 135°11'713.9
2017-Oct-13 05:30N 34°36' E 135°20'510.2
2017-Oct-13 05:00N 34°35' E 135°26'0 0.3
2017-Oct-13 04:30N 34°35' E 135°26'0 0.0
2017-Oct-12 23:16N 34°35' E 135°26'0 1.5
2017-Oct-12 22:59N 34°35' E 135°25'1 2.7
2017-Oct-12 22:30N 34°36' E 135°25'1 2.0
2017-Oct-12 21:56N 34°35' E 135°23'0 0.0
2017-Oct-12 21:26N 34°35' E 135°23'0 0.0
2017-Oct-12 20:44N 34°35' E 135°23'0 0.0
2017-Oct-12 20:14N 34°35' E 135°23'0 0.0
2017-Oct-12 19:38N 34°35' E 135°23'0 0.2
2017-Oct-12 19:20N 34°35' E 135°23'0 0.0
2017-Oct-12 18:44N 34°35' E 135°23'0 0.0
2017-Oct-12 18:26N 34°35' E 135°23'0 0.0
2017-Oct-12 17:56N 34°35' E 135°23'0 0.0
2017-Oct-12 17:26N 34°35' E 135°23'0 0.0
2017-Oct-12 16:38N 34°35' E 135°23'0 0.0
2017-Oct-12 16:20N 34°35' E 135°23'0 0.0
2017-Oct-12 15:50N 34°35' E 135°23'0 0.0
2017-Oct-12 15:26N 34°35' E 135°23'0 0.0
2017-Oct-12 14:56N 34°35' E 135°23'0 0.0
2017-Oct-12 14:02N 34°35' E 135°23'0 0.0
2017-Oct-12 13:32N 34°35' E 135°23'0 0.0
2017-Oct-12 13:14N 34°35' E 135°23'0 0.0
2017-Oct-12 12:50N 34°35' E 135°23'0 0.0
2017-Oct-12 11:38N 34°35' E 135°23'0 0.1
2017-Oct-12 11:26N 34°35' E 135°23'0 0.0
2017-Oct-12 10:50N 34°35' E 135°23'0 0.0
2017-Oct-12 10:26N 34°35' E 135°23'0 0.0
2017-Oct-12 09:56N 34°35' E 135°23'0 0.0
2017-Oct-12 08:56N 34°35' E 135°23'0 0.0
2017-Oct-12 08:26N 34°35' E 135°23'1 2.9
2017-Oct-12 07:56N 34°35' E 135°22'613.1
2017-Oct-12 07:30N 34°31' E 135°17'713.6
2017-Oct-12 06:59N 34°26' E 135°10'713.7
2017-Oct-12 06:26N 34°21' E 135°04'612.8
2017-Oct-12 05:58N 34°16' E 134°59'714.5
2017-Oct-12 05:30N 34°11' E 135°05'612.6
2017-Oct-12 05:00N 34°09' E 135°12'0 0.0
2017-Oct-12 00:46N 34°09' E 135°12'1 2.5
2017-Oct-12 00:30N 34°09' E 135°11'2 3.9
2017-Oct-12 00:00N 34°09' E 135°09'0 0.0
2017-Oct-11 23:13N 34°09' E 135°09'0 0.0
2017-Oct-11 22:55N 34°09' E 135°09'0 0.0
2017-Oct-11 22:28N 34°09' E 135°09'0 0.0
2017-Oct-11 21:58N 34°09' E 135°09'0 0.0
2017-Oct-11 21:28N 34°09' E 135°09'0 0.0
2017-Oct-11 20:58N 34°09' E 135°09'0 0.0
2017-Oct-11 20:28N 34°09' E 135°09'0 0.0
2017-Oct-11 19:58N 34°09' E 135°09'0 0.0
2017-Oct-11 19:25N 34°09' E 135°09'0 0.0
2017-Oct-11 18:55N 34°09' E 135°09'0 0.0
2017-Oct-11 18:25N 34°09' E 135°09'0 0.0
2017-Oct-11 17:58N 34°09' E 135°09'0 0.0
2017-Oct-11 17:28N 34°09' E 135°09'0 0.0
2017-Oct-11 16:58N 34°09' E 135°09'29 0.9
2017-Oct-10 08:44N 34°37' E 134°57'411.2
2017-Oct-10 08:23N 34°37' E 135°01'410.6
2017-Oct-10 08:01N 34°35' E 135°05'714.2
2017-Oct-10 07:30N 34°28' E 135°03'1013.9
2017-Oct-10 06:47N 34°18' E 134°59'311.9
2017-Oct-10 06:30N 34°15' E 135°01'713.9
2017-Oct-10 06:00N 34°11' E 135°07'5 1.0
2017-Oct-10 01:41N 34°09' E 135°12'1 3.8
2017-Oct-10 01:31N 34°09' E 135°11'2 3.5
2017-Oct-10 00:57N 34°09' E 135°09'0 0.0
2017-Oct-10 00:24N 34°09' E 135°09'0 0.0
2017-Oct-09 23:57N 34°09' E 135°09'0 0.0
2017-Oct-09 23:21N 34°09' E 135°09'0 0.0
2017-Oct-09 22:57N 34°09' E 135°09'0 0.0
2017-Oct-09 22:30N 34°09' E 135°09'0 0.1
2017-Oct-09 22:00N 34°09' E 135°09'0 0.1
2017-Oct-09 21:30N 34°09' E 135°09'0 0.0
2017-Oct-09 21:00N 34°09' E 135°09'0 0.0
2017-Oct-09 20:30N 34°09' E 135°09'0 0.0
2017-Oct-09 20:00N 34°09' E 135°09'0 0.0
2017-Oct-09 19:30N 34°09' E 135°09'0 0.0
2017-Oct-09 19:00N 34°09' E 135°09'0 0.0
2017-Oct-09 18:30N 34°09' E 135°09'0 0.0
2017-Oct-09 18:00N 34°09' E 135°09'0 0.0
2017-Oct-09 17:30N 34°09' E 135°09'0 0.0
2017-Oct-09 17:00N 34°09' E 135°09'0 0.0
2017-Oct-09 16:30N 34°09' E 135°09'0 0.0
2017-Oct-09 16:00N 34°09' E 135°09'0 0.0
2017-Oct-09 15:30N 34°09' E 135°09'0 0.1
2017-Oct-09 15:00N 34°09' E 135°09'0 0.0
2017-Oct-09 14:24N 34°09' E 135°09'0 0.0
2017-Oct-09 14:00N 34°09' E 135°09'0 0.0
2017-Oct-09 13:27N 34°09' E 135°09'0 0.0
2017-Oct-09 12:57N 34°09' E 135°09'1 3.0
2017-Oct-09 12:30N 34°10' E 135°08'612.5
2017-Oct-09 12:00N 34°13' E 135°01'1511.7
2017-Oct-09 10:45N 34°28' E 135°01'512.3
2017-Oct-09 10:20N 34°33' E 135°02'310.9
2017-Oct-09 10:00N 34°37' E 135°02'6 0.1
2017-Oct-07 12:49N 34°36' E 134°55'615.5
2017-Oct-07 12:28N 34°37' E 135°01'612.9
2017-Oct-07 12:00N 34°33' E 135°05'813.9
2017-Oct-07 11:27N 34°25' E 135°02'914.2
2017-Oct-07 10:50N 34°17' E 134°59'413.7
2017-Oct-07 10:30N 34°14' E 135°03'713.6
2017-Oct-07 10:00N 34°09' E 135°09'2 0.2
2017-Oct-06 23:46N 34°09' E 135°12'1 4.8
2017-Oct-06 23:30N 34°09' E 135°10'1 2.2
2017-Oct-06 23:00N 34°09' E 135°09'0 0.0
2017-Oct-06 22:27N 34°09' E 135°09'0 0.0
2017-Oct-06 22:00N 34°09' E 135°09'0 0.0
2017-Oct-06 21:30N 34°09' E 135°09'0 0.0
2017-Oct-06 21:00N 34°09' E 135°09'0 0.0
2017-Oct-06 20:30N 34°09' E 135°09'0 0.0
2017-Oct-06 20:00N 34°09' E 135°09'0 0.0
2017-Oct-06 19:30N 34°09' E 135°09'0 0.0
2017-Oct-06 19:00N 34°09' E 135°09'0 0.0
2017-Oct-06 18:24N 34°09' E 135°09'0 0.0
2017-Oct-06 17:57N 34°09' E 135°09'0 0.0
2017-Oct-06 17:30N 34°09' E 135°09'0 0.0
2017-Oct-06 17:00N 34°09' E 135°09'0 0.0
2017-Oct-06 16:30N 34°09' E 135°09'0 0.0
2017-Oct-06 16:00N 34°09' E 135°09'0 0.0
2017-Oct-06 15:30N 34°09' E 135°09'0 0.0
2017-Oct-06 15:00N 34°09' E 135°09'0 0.0
2017-Oct-06 14:30N 34°09' E 135°09'1 1.5
2017-Oct-06 14:01N 34°10' E 135°08'713.1
2017-Oct-06 13:31N 34°14' E 135°02'1511.5
2017-Oct-06 12:14N 34°28' E 135°01'512.5
2017-Oct-06 11:51N 34°33' E 135°02'4 9.3
2017-Oct-06 11:29N 34°36' E 135°02'5 9.1
2017-Oct-06 10:59N 34°36' E 134°56'  
Track history (hours):
 
Tides and Currents Weather Stations Pressure Air Temp Water Temp Dewpoint Dewpoint Depression Visibility Wind Speed Wind Dir Waves Ship Positions

Kirishima Maru No.17

Last reported at 2017-Oct-13 06:36 UTC. Time now 2017-Oct-20 06:49 UTC.
Position N 34°37' E 135°01'.

Length 91 m; draft 4.8 m.

Type: Tanker. MMSI: 431003736.

Date/timePositionNaut miles runAvg speedWind from/ knotsBaromVisibWave heightAir tempDewpointWater temp
2017-Oct-13 06:36N 34°37' E 135°01'116.7
2017-Oct-13 06:31N 34°37' E 135°03'714.1
2017-Oct-13 06:01N 34°36' E 135°11'713.9
2017-Oct-13 05:30N 34°36' E 135°20'510.2
2017-Oct-13 05:00N 34°35' E 135°26'0 0.3
2017-Oct-13 04:30N 34°35' E 135°26'0 0.0
2017-Oct-12 23:16N 34°35' E 135°26'0 1.5
2017-Oct-12 22:59N 34°35' E 135°25'1 2.7
2017-Oct-12 22:30N 34°36' E 135°25'1 2.0
2017-Oct-12 21:56N 34°35' E 135°23'0 0.0
2017-Oct-12 21:26N 34°35' E 135°23'0 0.0
2017-Oct-12 20:44N 34°35' E 135°23'0 0.0
2017-Oct-12 20:14N 34°35' E 135°23'0 0.0
2017-Oct-12 19:38N 34°35' E 135°23'0 0.2
2017-Oct-12 19:20N 34°35' E 135°23'0 0.0
2017-Oct-12 18:44N 34°35' E 135°23'0 0.0
2017-Oct-12 18:26N 34°35' E 135°23'0 0.0
2017-Oct-12 17:56N 34°35' E 135°23'0 0.0
2017-Oct-12 17:26N 34°35' E 135°23'0 0.0
2017-Oct-12 16:38N 34°35' E 135°23'0 0.0
2017-Oct-12 16:20N 34°35' E 135°23'0 0.0
2017-Oct-12 15:50N 34°35' E 135°23'0 0.0
2017-Oct-12 15:26N 34°35' E 135°23'0 0.0
2017-Oct-12 14:56N 34°35' E 135°23'0 0.0
2017-Oct-12 14:02N 34°35' E 135°23'0 0.0
2017-Oct-12 13:32N 34°35' E 135°23'0 0.0
2017-Oct-12 13:14N 34°35' E 135°23'0 0.0
2017-Oct-12 12:50N 34°35' E 135°23'0 0.0
2017-Oct-12 11:38N 34°35' E 135°23'0 0.1
2017-Oct-12 11:26N 34°35' E 135°23'0 0.0
2017-Oct-12 10:50N 34°35' E 135°23'0 0.0
2017-Oct-12 10:26N 34°35' E 135°23'0 0.0
2017-Oct-12 09:56N 34°35' E 135°23'0 0.0
2017-Oct-12 08:56N 34°35' E 135°23'0 0.0
2017-Oct-12 08:26N 34°35' E 135°23'1 2.9
2017-Oct-12 07:56N 34°35' E 135°22'613.1
2017-Oct-12 07:30N 34°31' E 135°17'713.6
2017-Oct-12 06:59N 34°26' E 135°10'713.7
2017-Oct-12 06:26N 34°21' E 135°04'612.8
2017-Oct-12 05:58N 34°16' E 134°59'714.5
2017-Oct-12 05:30N 34°11' E 135°05'612.6
2017-Oct-12 05:00N 34°09' E 135°12'0 0.0
2017-Oct-12 00:46N 34°09' E 135°12'1 2.5
2017-Oct-12 00:30N 34°09' E 135°11'2 3.9
2017-Oct-12 00:00N 34°09' E 135°09'0 0.0
2017-Oct-11 23:13N 34°09' E 135°09'0 0.0
2017-Oct-11 22:55N 34°09' E 135°09'0 0.0
2017-Oct-11 22:28N 34°09' E 135°09'0 0.0
2017-Oct-11 21:58N 34°09' E 135°09'0 0.0
2017-Oct-11 21:28N 34°09' E 135°09'0 0.0
2017-Oct-11 20:58N 34°09' E 135°09'0 0.0
2017-Oct-11 20:28N 34°09' E 135°09'0 0.0
2017-Oct-11 19:58N 34°09' E 135°09'0 0.0
2017-Oct-11 19:25N 34°09' E 135°09'0 0.0
2017-Oct-11 18:55N 34°09' E 135°09'0 0.0
2017-Oct-11 18:25N 34°09' E 135°09'0 0.0
2017-Oct-11 17:58N 34°09' E 135°09'0 0.0
2017-Oct-11 17:28N 34°09' E 135°09'0 0.0
2017-Oct-11 16:58N 34°09' E 135°09'29 0.9
2017-Oct-10 08:44N 34°37' E 134°57'411.2
2017-Oct-10 08:23N 34°37' E 135°01'410.6
2017-Oct-10 08:01N 34°35' E 135°05'714.2
2017-Oct-10 07:30N 34°28' E 135°03'1013.9
2017-Oct-10 06:47N 34°18' E 134°59'311.9
2017-Oct-10 06:30N 34°15' E 135°01'713.9
2017-Oct-10 06:00N 34°11' E 135°07'5 1.0
2017-Oct-10 01:41N 34°09' E 135°12'1 3.8
2017-Oct-10 01:31N 34°09' E 135°11'2 3.5
2017-Oct-10 00:57N 34°09' E 135°09'0 0.0
2017-Oct-10 00:24N 34°09' E 135°09'0 0.0
2017-Oct-09 23:57N 34°09' E 135°09'0 0.0
2017-Oct-09 23:21N 34°09' E 135°09'0 0.0
2017-Oct-09 22:57N 34°09' E 135°09'0 0.0
2017-Oct-09 22:30N 34°09' E 135°09'0 0.1
2017-Oct-09 22:00N 34°09' E 135°09'0 0.1
2017-Oct-09 21:30N 34°09' E 135°09'0 0.0
2017-Oct-09 21:00N 34°09' E 135°09'0 0.0
2017-Oct-09 20:30N 34°09' E 135°09'0 0.0
2017-Oct-09 20:00N 34°09' E 135°09'0 0.0
2017-Oct-09 19:30N 34°09' E 135°09'0 0.0
2017-Oct-09 19:00N 34°09' E 135°09'0 0.0
2017-Oct-09 18:30N 34°09' E 135°09'0 0.0
2017-Oct-09 18:00N 34°09' E 135°09'0 0.0
2017-Oct-09 17:30N 34°09' E 135°09'0 0.0
2017-Oct-09 17:00N 34°09' E 135°09'0 0.0
2017-Oct-09 16:30N 34°09' E 135°09'0 0.0
2017-Oct-09 16:00N 34°09' E 135°09'0 0.0
2017-Oct-09 15:30N 34°09' E 135°09'0 0.1
2017-Oct-09 15:00N 34°09' E 135°09'0 0.0
2017-Oct-09 14:24N 34°09' E 135°09'0 0.0
2017-Oct-09 14:00N 34°09' E 135°09'0 0.0
2017-Oct-09 13:27N 34°09' E 135°09'0 0.0
2017-Oct-09 12:57N 34°09' E 135°09'1 3.0
2017-Oct-09 12:30N 34°10' E 135°08'612.5
2017-Oct-09 12:00N 34°13' E 135°01'1511.7
2017-Oct-09 10:45N 34°28' E 135°01'512.3
2017-Oct-09 10:20N 34°33' E 135°02'310.9
2017-Oct-09 10:00N 34°37' E 135°02'6 0.1
2017-Oct-07 12:49N 34°36' E 134°55'615.5
2017-Oct-07 12:28N 34°37' E 135°01'612.9
2017-Oct-07 12:00N 34°33' E 135°05'813.9
2017-Oct-07 11:27N 34°25' E 135°02'914.2
2017-Oct-07 10:50N 34°17' E 134°59'413.7
2017-Oct-07 10:30N 34°14' E 135°03'713.6
2017-Oct-07 10:00N 34°09' E 135°09'2 0.2
2017-Oct-06 23:46N 34°09' E 135°12'1 4.8
2017-Oct-06 23:30N 34°09' E 135°10'1 2.2
2017-Oct-06 23:00N 34°09' E 135°09'0 0.0
2017-Oct-06 22:27N 34°09' E 135°09'0 0.0
2017-Oct-06 22:00N 34°09' E 135°09'0 0.0
2017-Oct-06 21:30N 34°09' E 135°09'0 0.0
2017-Oct-06 21:00N 34°09' E 135°09'0 0.0
2017-Oct-06 20:30N 34°09' E 135°09'0 0.0
2017-Oct-06 20:00N 34°09' E 135°09'0 0.0
2017-Oct-06 19:30N 34°09' E 135°09'0 0.0
2017-Oct-06 19:00N 34°09' E 135°09'0 0.0
2017-Oct-06 18:24N 34°09' E 135°09'0 0.0
2017-Oct-06 17:57N 34°09' E 135°09'0 0.0
2017-Oct-06 17:30N 34°09' E 135°09'0 0.0
2017-Oct-06 17:00N 34°09' E 135°09'0 0.0
2017-Oct-06 16:30N 34°09' E 135°09'0 0.0
2017-Oct-06 16:00N 34°09' E 135°09'0 0.0
2017-Oct-06 15:30N 34°09' E 135°09'0 0.0
2017-Oct-06 15:00N 34°09' E 135°09'0 0.0
2017-Oct-06 14:30N 34°09' E 135°09'1 1.5
2017-Oct-06 14:01N 34°10' E 135°08'713.1
2017-Oct-06 13:31N 34°14' E 135°02'1511.5
2017-Oct-06 12:14N 34°28' E 135°01'512.5
2017-Oct-06 11:51N 34°33' E 135°02'4 9.3
2017-Oct-06 11:29N 34°36' E 135°02'5 9.1
2017-Oct-06 10:59N 34°36' E 134°56'  

Dump ship's entire track history